sensor_id;sensor_type;location;lat;lon;timestamp;pressure;altitude;pressure_sealevel;temperature;humidity
35224;BME280;21367;51.930;8.112;2023-03-31T00:04:24;99867.94;;;10.44;98.79
35224;BME280;21367;51.930;8.112;2023-03-31T00:09:28;99869.78;;;10.49;98.59
35224;BME280;21367;51.930;8.112;2023-03-31T00:14:35;99870.22;;;10.34;99.29
35224;BME280;21367;51.930;8.112;2023-03-31T00:19:39;99856.63;;;10.38;99.97
35224;BME280;21367;51.930;8.112;2023-03-31T00:24:43;99845.53;;;10.39;98.54
35224;BME280;21367;51.930;8.112;2023-03-31T00:29:49;99843.44;;;10.26;99.68
35224;BME280;21367;51.930;8.112;2023-03-31T00:34:53;99839.97;;;10.26;99.86
35224;BME280;21367;51.930;8.112;2023-03-31T00:39:57;99830.25;;;10.44;99.71
35224;BME280;21367;51.930;8.112;2023-03-31T00:45:28;99814.44;;;10.30;99.84
35224;BME280;21367;51.930;8.112;2023-03-31T00:50:35;99818.63;;;10.27;100.00
35224;BME280;21367;51.930;8.112;2023-03-31T00:55:43;99808.72;;;10.12;100.00
35224;BME280;21367;51.930;8.112;2023-03-31T01:00:51;99802.63;;;10.07;100.00
35224;BME280;21367;51.930;8.112;2023-03-31T01:05:59;99789.97;;;10.13;100.00
35224;BME280;21367;51.930;8.112;2023-03-31T01:11:05;99782.59;;;10.25;100.00
35224;BME280;21367;51.930;8.112;2023-03-31T01:16:12;99769.94;;;10.03;100.00
35224;BME280;21367;51.930;8.112;2023-03-31T01:27:09;99756.31;;;10.04;100.00
35224;BME280;21367;51.930;8.112;2023-03-31T01:32:45;99750.56;;;10.12;100.00
35224;BME280;21367;51.930;8.112;2023-03-31T01:43:47;99731.41;;;10.01;100.00
35224;BME280;21367;51.930;8.112;2023-03-31T01:49:01;99721.59;;;10.16;100.00
35224;BME280;21367;51.930;8.112;2023-03-31T01:54:14;99707.50;;;10.32;100.00
35224;BME280;21367;51.930;8.112;2023-03-31T01:59:27;99711.63;;;10.27;100.00
35224;BME280;21367;51.930;8.112;2023-03-31T02:04:35;99705.09;;;10.38;100.00
35224;BME280;21367;51.930;8.112;2023-03-31T02:09:44;99696.69;;;10.44;100.00
35224;BME280;21367;51.930;8.112;2023-03-31T02:14:54;99684.88;;;10.51;100.00
35224;BME280;21367;51.930;8.112;2023-03-31T02:20:02;99673.31;;;10.35;100.00
35224;BME280;21367;51.930;8.112;2023-03-31T02:25:10;99662.75;;;10.57;99.63
35224;BME280;21367;51.930;8.112;2023-03-31T02:30:19;99660.81;;;10.49;99.41
35224;BME280;21367;51.930;8.112;2023-03-31T02:35:23;99640.19;;;10.46;100.00
35224;BME280;21367;51.930;8.112;2023-03-31T02:40:30;99641.34;;;10.57;100.00
35224;BME280;21367;51.930;8.112;2023-03-31T02:45:42;99624.84;;;10.47;100.00
35224;BME280;21367;51.930;8.112;2023-03-31T02:51:03;99621.34;;;10.45;100.00
35224;BME280;21367;51.930;8.112;2023-03-31T02:56:27;99626.31;;;10.37;100.00
35224;BME280;21367;51.930;8.112;2023-03-31T03:01:50;99602.28;;;10.37;100.00
35224;BME280;21367;51.930;8.112;2023-03-31T03:07:02;99589.00;;;10.20;100.00
35224;BME280;21367;51.930;8.112;2023-03-31T03:12:14;99574.31;;;10.14;100.00
35224;BME280;21367;51.930;8.112;2023-03-31T03:17:25;99567.47;;;10.15;100.00
35224;BME280;21367;51.930;8.112;2023-03-31T03:22:29;99564.03;;;10.14;100.00
35224;BME280;21367;51.930;8.112;2023-03-31T03:27:33;99551.97;;;10.10;100.00
35224;BME280;21367;51.930;8.112;2023-03-31T03:32:39;99532.38;;;10.14;100.00
35224;BME280;21367;51.930;8.112;2023-03-31T03:37:44;99521.31;;;10.16;100.00
35224;BME280;21367;51.930;8.112;2023-03-31T03:42:47;99496.97;;;10.01;100.00
35224;BME280;21367;51.930;8.112;2023-03-31T03:47:54;99476.44;;;10.35;100.00
35224;BME280;21367;51.930;8.112;2023-03-31T03:52:57;99461.22;;;10.08;100.00
35224;BME280;21367;51.930;8.112;2023-03-31T03:58:01;99458.13;;;10.22;100.00
35224;BME280;21367;51.930;8.112;2023-03-31T04:03:07;99443.56;;;10.22;100.00
35224;BME280;21367;51.930;8.112;2023-03-31T04:08:10;99447.34;;;10.36;100.00
35224;BME280;21367;51.930;8.112;2023-03-31T04:13:14;99445.31;;;10.61;100.00
35224;BME280;21367;51.930;8.112;2023-03-31T04:18:21;99441.66;;;10.13;100.00
35224;BME280;21367;51.930;8.112;2023-03-31T04:23:25;99432.53;;;9.90;100.00
35224;BME280;21367;51.930;8.112;2023-03-31T04:28:28;99426.06;;;10.06;100.00
35224;BME280;21367;51.930;8.112;2023-03-31T04:33:37;99412.56;;;10.13;100.00
35224;BME280;21367;51.930;8.112;2023-03-31T04:38:41;99396.44;;;10.18;100.00
35224;BME280;21367;51.930;8.112;2023-03-31T04:43:46;99385.25;;;10.18;100.00
35224;BME280;21367;51.930;8.112;2023-03-31T04:48:53;99389.00;;;10.31;100.00
35224;BME280;21367;51.930;8.112;2023-03-31T04:53:58;99367.78;;;10.38;100.00
35224;BME280;21367;51.930;8.112;2023-03-31T04:59:01;99345.19;;;9.85;100.00
35224;BME280;21367;51.930;8.112;2023-03-31T05:04:09;99338.41;;;10.27;100.00
35224;BME280;21367;51.930;8.112;2023-03-31T05:09:12;99333.84;;;10.13;100.00
35224;BME280;21367;51.930;8.112;2023-03-31T05:14:16;99334.16;;;10.27;100.00
35224;BME280;21367;51.930;8.112;2023-03-31T05:19:23;99320.34;;;10.24;100.00
35224;BME280;21367;51.930;8.112;2023-03-31T05:24:27;99310.19;;;9.87;100.00
35224;BME280;21367;51.930;8.112;2023-03-31T05:29:30;99300.63;;;9.82;100.00
35224;BME280;21367;51.930;8.112;2023-03-31T05:34:37;99310.09;;;9.84;100.00
35224;BME280;21367;51.930;8.112;2023-03-31T05:39:42;99291.78;;;10.08;100.00
35224;BME280;21367;51.930;8.112;2023-03-31T05:44:46;99281.75;;;9.80;100.00
35224;BME280;21367;51.930;8.112;2023-03-31T05:49:52;99275.25;;;9.94;100.00
35224;BME280;21367;51.930;8.112;2023-03-31T05:54:56;99255.84;;;10.07;100.00
35224;BME280;21367;51.930;8.112;2023-03-31T05:59:59;99246.72;;;9.80;100.00
35224;BME280;21367;51.930;8.112;2023-03-31T06:05:07;99240.25;;;9.98;100.00
35224;BME280;21367;51.930;8.112;2023-03-31T06:10:11;99217.44;;;10.13;100.00
35224;BME280;21367;51.930;8.112;2023-03-31T06:15:14;99211.41;;;10.11;100.00
35224;BME280;21367;51.930;8.112;2023-03-31T06:20:21;99195.28;;;10.16;100.00
35224;BME280;21367;51.930;8.112;2023-03-31T06:25:25;99179.06;;;10.20;100.00
35224;BME280;21367;51.930;8.112;2023-03-31T06:30:29;99162.16;;;10.29;100.00
35224;BME280;21367;51.930;8.112;2023-03-31T06:35:36;99163.72;;;10.24;100.00
35224;BME280;21367;51.930;8.112;2023-03-31T06:40:41;99163.44;;;10.07;100.00
35224;BME280;21367;51.930;8.112;2023-03-31T06:45:44;99152.59;;;10.23;100.00
35224;BME280;21367;51.930;8.112;2023-03-31T06:50:52;99144.88;;;10.22;100.00
35224;BME280;21367;51.930;8.112;2023-03-31T06:55:57;99135.88;;;10.44;100.00
35224;BME280;21367;51.930;8.112;2023-03-31T07:01:03;99131.91;;;10.62;100.00
35224;BME280;21367;51.930;8.112;2023-03-31T07:06:10;99124.22;;;10.62;100.00
35224;BME280;21367;51.930;8.112;2023-03-31T07:11:14;99122.56;;;10.66;100.00
35224;BME280;21367;51.930;8.112;2023-03-31T07:16:19;99112.38;;;10.72;100.00
35224;BME280;21367;51.930;8.112;2023-03-31T07:21:26;99113.34;;;10.79;100.00
35224;BME280;21367;51.930;8.112;2023-03-31T07:26:30;99105.28;;;10.59;100.00
35224;BME280;21367;51.930;8.112;2023-03-31T07:31:34;99103.63;;;10.61;100.00
35224;BME280;21367;51.930;8.112;2023-03-31T07:36:42;99101.31;;;10.78;100.00
35224;BME280;21367;51.930;8.112;2023-03-31T07:41:46;99098.53;;;10.64;100.00
35224;BME280;21367;51.930;8.112;2023-03-31T07:46:49;99090.78;;;10.61;100.00
35224;BME280;21367;51.930;8.112;2023-03-31T07:51:56;99096.47;;;10.41;100.00
35224;BME280;21367;51.930;8.112;2023-03-31T07:57:00;99093.84;;;10.40;100.00
35224;BME280;21367;51.930;8.112;2023-03-31T08:02:06;99087.06;;;10.42;100.00
35224;BME280;21367;51.930;8.112;2023-03-31T08:07:13;99097.66;;;10.15;100.00
35224;BME280;21367;51.930;8.112;2023-03-31T08:12:17;99087.09;;;10.44;100.00
35224;BME280;21367;51.930;8.112;2023-03-31T08:17:21;99088.97;;;10.54;100.00
35224;BME280;21367;51.930;8.112;2023-03-31T08:22:28;99063.59;;;10.24;100.00
35224;BME280;21367;51.930;8.112;2023-03-31T08:27:33;99074.41;;;10.56;100.00
35224;BME280;21367;51.930;8.112;2023-03-31T08:32:39;99071.69;;;10.44;100.00
35224;BME280;21367;51.930;8.112;2023-03-31T08:37:48;99067.75;;;10.65;100.00
35224;BME280;21367;51.930;8.112;2023-03-31T08:42:55;99068.41;;;10.54;100.00
35224;BME280;21367;51.930;8.112;2023-03-31T08:48:05;99063.97;;;10.44;100.00
35224;BME280;21367;51.930;8.112;2023-03-31T08:53:21;99063.03;;;10.38;100.00
35224;BME280;21367;51.930;8.112;2023-03-31T08:58:33;99058.59;;;10.30;100.00
35224;BME280;21367;51.930;8.112;2023-03-31T09:03:44;99065.59;;;10.38;100.00
35224;BME280;21367;51.930;8.112;2023-03-31T09:08:59;99052.56;;;10.28;100.00
35224;BME280;21367;51.930;8.112;2023-03-31T09:14:12;99057.91;;;10.40;100.00
35224;BME280;21367;51.930;8.112;2023-03-31T09:19:25;99046.72;;;10.35;100.00
35224;BME280;21367;51.930;8.112;2023-03-31T09:24:45;99042.97;;;10.17;100.00
35224;BME280;21367;51.930;8.112;2023-03-31T09:29:52;99044.41;;;10.52;100.00
35224;BME280;21367;51.930;8.112;2023-03-31T09:34:59;99031.00;;;10.74;100.00
35224;BME280;21367;51.930;8.112;2023-03-31T09:40:15;99030.53;;;11.03;100.00
35224;BME280;21367;51.930;8.112;2023-03-31T09:45:19;99029.59;;;10.95;100.00
35224;BME280;21367;51.930;8.112;2023-03-31T09:50:23;99022.16;;;11.16;100.00
35224;BME280;21367;51.930;8.112;2023-03-31T09:55:36;99026.59;;;11.29;100.00
35224;BME280;21367;51.930;8.112;2023-03-31T10:00:57;99017.03;;;11.95;100.00
35224;BME280;21367;51.930;8.112;2023-03-31T10:06:07;99009.31;;;11.97;100.00
35224;BME280;21367;51.930;8.112;2023-03-31T10:11:15;99003.53;;;12.22;100.00
35224;BME280;21367;51.930;8.112;2023-03-31T10:16:27;98995.81;;;12.22;98.44
35224;BME280;21367;51.930;8.112;2023-03-31T10:21:35;98980.91;;;11.85;100.00
35224;BME280;21367;51.930;8.112;2023-03-31T10:26:42;98977.41;;;11.82;100.00
35224;BME280;21367;51.930;8.112;2023-03-31T10:31:45;98973.09;;;11.78;100.00
35224;BME280;21367;51.930;8.112;2023-03-31T10:36:50;98981.56;;;11.68;100.00
35224;BME280;21367;51.930;8.112;2023-03-31T10:41:57;98969.59;;;11.75;100.00
35224;BME280;21367;51.930;8.112;2023-03-31T10:47:17;98963.44;;;11.56;100.00
35224;BME280;21367;51.930;8.112;2023-03-31T10:52:23;98947.56;;;11.98;99.94
35224;BME280;21367;51.930;8.112;2023-03-31T10:57:38;98935.59;;;12.08;99.39
35224;BME280;21367;51.930;8.112;2023-03-31T11:03:18;98927.06;;;12.15;97.30
35224;BME280;21367;51.930;8.112;2023-03-31T11:08:41;98919.19;;;11.94;99.95
35224;BME280;21367;51.930;8.112;2023-03-31T11:13:55;98924.50;;;12.18;97.71
35224;BME280;21367;51.930;8.112;2023-03-31T11:19:10;98916.75;;;12.15;98.85
35224;BME280;21367;51.930;8.112;2023-03-31T11:24:28;98917.00;;;12.55;96.89
35224;BME280;21367;51.930;8.112;2023-03-31T11:29:40;98922.41;;;13.15;93.71
35224;BME280;21367;51.930;8.112;2023-03-31T11:35:04;98916.38;;;13.08;94.07
35224;BME280;21367;51.930;8.112;2023-03-31T11:40:31;98905.28;;;13.35;93.19
35224;BME280;21367;51.930;8.112;2023-03-31T11:45:45;98905.31;;;13.61;88.95
35224;BME280;21367;51.930;8.112;2023-03-31T11:50:54;98911.13;;;12.87;91.64
35224;BME280;21367;51.930;8.112;2023-03-31T11:56:01;98911.75;;;12.37;93.56
35224;BME280;21367;51.930;8.112;2023-03-31T12:01:15;98897.97;;;12.29;96.95
35224;BME280;21367;51.930;8.112;2023-03-31T12:06:24;98890.25;;;12.25;97.36
35224;BME280;21367;51.930;8.112;2023-03-31T12:11:36;98882.91;;;13.40;91.92
35224;BME280;21367;51.930;8.112;2023-03-31T12:16:45;98877.75;;;14.05;89.83
35224;BME280;21367;51.930;8.112;2023-03-31T12:21:54;98868.97;;;14.69;82.62
35224;BME280;21367;51.930;8.112;2023-03-31T12:27:04;98870.00;;;14.02;80.01
35224;BME280;21367;51.930;8.112;2023-03-31T12:32:17;98860.41;;;14.48;82.38
35224;BME280;21367;51.930;8.112;2023-03-31T12:37:49;98876.03;;;13.59;83.77
35224;BME280;21367;51.930;8.112;2023-03-31T12:43:03;98894.03;;;13.18;84.77
35224;BME280;21367;51.930;8.112;2023-03-31T12:48:24;98874.84;;;12.44;90.36
35224;BME280;21367;51.930;8.112;2023-03-31T12:53:37;98891.78;;;12.00;92.08
35224;BME280;21367;51.930;8.112;2023-03-31T12:58:45;98896.16;;;12.14;93.11
35224;BME280;21367;51.930;8.112;2023-03-31T13:04:06;98881.03;;;12.81;91.64
35224;BME280;21367;51.930;8.112;2023-03-31T13:09:43;98877.72;;;14.16;84.73
35224;BME280;21367;51.930;8.112;2023-03-31T13:14:48;98877.75;;;13.91;81.01
35224;BME280;21367;51.930;8.112;2023-03-31T13:20:14;98869.16;;;13.61;81.66
35224;BME280;21367;51.930;8.112;2023-03-31T13:25:35;98873.44;;;13.30;82.44
35224;BME280;21367;51.930;8.112;2023-03-31T13:30:48;98867.44;;;13.59;83.09
35224;BME280;21367;51.930;8.112;2023-03-31T13:41:38;98864.88;;;13.67;85.14
35224;BME280;21367;51.930;8.112;2023-03-31T13:46:55;98861.41;;;14.01;84.28
35224;BME280;21367;51.930;8.112;2023-03-31T13:52:11;98871.69;;;13.23;85.91
35224;BME280;21367;51.930;8.112;2023-03-31T13:57:29;98875.97;;;13.04;87.53
35224;BME280;21367;51.930;8.112;2023-03-31T14:02:54;98875.09;;;13.22;86.59
35224;BME280;21367;51.930;8.112;2023-03-31T14:08:09;98870.88;;;13.39;86.11
35224;BME280;21367;51.930;8.112;2023-03-31T14:13:16;98863.13;;;13.62;85.49
35224;BME280;21367;51.930;8.112;2023-03-31T14:18:23;98861.44;;;13.55;86.15
35224;BME280;21367;51.930;8.112;2023-03-31T14:23:38;98850.22;;;13.90;84.61
35224;BME280;21367;51.930;8.112;2023-03-31T14:29:02;98841.53;;;14.26;82.38
35224;BME280;21367;51.930;8.112;2023-03-31T14:34:29;98838.09;;;14.26;84.00
35224;BME280;21367;51.930;8.112;2023-03-31T14:39:56;98830.25;;;14.47;81.89
35224;BME280;21367;51.930;8.112;2023-03-31T14:45:02;98828.63;;;14.12;86.44
35224;BME280;21367;51.930;8.112;2023-03-31T14:50:14;98821.63;;;14.57;82.59
35224;BME280;21367;51.930;8.112;2023-03-31T14:55:24;98825.03;;;14.66;81.26
35224;BME280;21367;51.930;8.112;2023-03-31T15:00:31;98825.06;;;14.61;81.33
35224;BME280;21367;51.930;8.112;2023-03-31T15:05:36;98817.34;;;14.41;82.36
35224;BME280;21367;51.930;8.112;2023-03-31T15:10:49;98811.38;;;14.22;83.58
35224;BME280;21367;51.930;8.112;2023-03-31T15:15:53;98804.50;;;14.26;84.06
35224;BME280;21367;51.930;8.112;2023-03-31T15:20:57;98809.72;;;14.07;83.12
35224;BME280;21367;51.930;8.112;2023-03-31T15:26:08;98810.66;;;13.47;87.35
35224;BME280;21367;51.930;8.112;2023-03-31T15:31:15;98792.56;;;13.86;84.84
35224;BME280;21367;51.930;8.112;2023-03-31T15:36:19;98787.38;;;13.93;84.65
35224;BME280;21367;51.930;8.112;2023-03-31T15:41:28;98783.97;;;13.63;85.08
35224;BME280;21367;51.930;8.112;2023-03-31T15:46:54;98780.53;;;13.56;84.69
35224;BME280;21367;51.930;8.112;2023-03-31T15:52:00;98772.78;;;13.69;84.71
35224;BME280;21367;51.930;8.112;2023-03-31T15:57:08;98771.00;;;14.00;83.45
35224;BME280;21367;51.930;8.112;2023-03-31T16:02:15;98778.84;;;13.43;85.94
35224;BME280;21367;51.930;8.112;2023-03-31T16:07:21;98765.91;;;13.57;83.81
35224;BME280;21367;51.930;8.112;2023-03-31T16:12:31;98767.66;;;13.52;84.62
35224;BME280;21367;51.930;8.112;2023-03-31T16:17:39;98786.53;;;12.89;86.58
35224;BME280;21367;51.930;8.112;2023-03-31T16:22:50;98786.38;;;12.36;92.71
35224;BME280;21367;51.930;8.112;2023-03-31T16:27:59;98784.84;;;13.01;93.19
35224;BME280;21367;51.930;8.112;2023-03-31T16:33:07;98788.25;;;12.89;94.04
35224;BME280;21367;51.930;8.112;2023-03-31T16:38:11;98786.44;;;12.54;98.83
35224;BME280;21367;51.930;8.112;2023-03-31T16:43:19;98810.34;;;12.13;100.00
35224;BME280;21367;51.930;8.112;2023-03-31T16:48:25;98802.69;;;12.38;100.00
35224;BME280;21367;51.930;8.112;2023-03-31T16:53:30;98797.50;;;12.25;100.00
35224;BME280;21367;51.930;8.112;2023-03-31T16:58:38;98779.50;;;12.33;100.00
35224;BME280;21367;51.930;8.112;2023-03-31T17:03:43;98783.03;;;12.60;99.29
35224;BME280;21367;51.930;8.112;2023-03-31T17:08:47;98784.63;;;12.22;98.74
35224;BME280;21367;51.930;8.112;2023-03-31T17:13:53;98776.72;;;11.89;100.00
35224;BME280;21367;51.930;8.112;2023-03-31T17:18:57;98778.31;;;11.77;98.89
35224;BME280;21367;51.930;8.112;2023-03-31T17:24:00;98775.69;;;11.64;100.00
35224;BME280;21367;51.930;8.112;2023-03-31T17:29:08;98778.91;;;11.37;100.00
35224;BME280;21367;51.930;8.112;2023-03-31T17:34:12;98774.56;;;11.31;99.18
35224;BME280;21367;51.930;8.112;2023-03-31T17:39:16;98778.88;;;11.29;99.91
35224;BME280;21367;51.930;8.112;2023-03-31T17:44:23;98774.47;;;11.19;99.94
35224;BME280;21367;51.930;8.112;2023-03-31T17:49:26;98769.19;;;10.97;100.00
35224;BME280;21367;51.930;8.112;2023-03-31T17:54:31;98787.22;;;11.03;99.20
35224;BME280;21367;51.930;8.112;2023-03-31T17:59:38;98780.34;;;11.01;100.00
35224;BME280;21367;51.930;8.112;2023-03-31T18:04:41;98794.06;;;11.04;98.66
35224;BME280;21367;51.930;8.112;2023-03-31T18:09:45;98790.53;;;10.93;99.20
35224;BME280;21367;51.930;8.112;2023-03-31T18:14:51;98803.47;;;11.02;100.00
35224;BME280;21367;51.930;8.112;2023-03-31T18:19:55;98804.94;;;10.77;100.00
35224;BME280;21367;51.930;8.112;2023-03-31T18:24:58;98804.25;;;10.92;100.00
35224;BME280;21367;51.930;8.112;2023-03-31T18:30:06;98810.97;;;10.81;100.00
35224;BME280;21367;51.930;8.112;2023-03-31T18:35:10;98800.03;;;11.02;100.00
35224;BME280;21367;51.930;8.112;2023-03-31T18:40:14;98801.63;;;10.87;99.66
35224;BME280;21367;51.930;8.112;2023-03-31T18:45:21;98803.28;;;10.84;100.00
35224;BME280;21367;51.930;8.112;2023-03-31T18:50:24;98800.94;;;11.04;100.00
35224;BME280;21367;51.930;8.112;2023-03-31T18:55:30;98809.25;;;10.80;100.00
35224;BME280;21367;51.930;8.112;2023-03-31T19:00:36;98821.03;;;10.61;100.00
35224;BME280;21367;51.930;8.112;2023-03-31T19:05:40;98817.78;;;10.77;100.00
35224;BME280;21367;51.930;8.112;2023-03-31T19:10:44;98816.91;;;10.72;100.00
35224;BME280;21367;51.930;8.112;2023-03-31T19:15:51;98811.84;;;10.83;100.00
35224;BME280;21367;51.930;8.112;2023-03-31T19:20:54;98811.59;;;10.58;100.00
35224;BME280;21367;51.930;8.112;2023-03-31T19:25:58;98811.69;;;10.68;100.00
35224;BME280;21367;51.930;8.112;2023-03-31T19:31:05;98811.81;;;10.80;100.00
35224;BME280;21367;51.930;8.112;2023-03-31T19:36:08;98828.00;;;10.70;100.00
35224;BME280;21367;51.930;8.112;2023-03-31T19:41:12;98812.53;;;10.67;100.00
35224;BME280;21367;51.930;8.112;2023-03-31T19:46:20;98813.94;;;10.40;100.00
35224;BME280;21367;51.930;8.112;2023-03-31T19:51:24;98804.69;;;10.54;100.00
35224;BME280;21367;51.930;8.112;2023-03-31T19:56:28;98805.53;;;10.52;100.00
35224;BME280;21367;51.930;8.112;2023-03-31T20:01:34;98808.16;;;10.56;100.00
35224;BME280;21367;51.930;8.112;2023-03-31T20:06:38;98800.09;;;10.27;100.00
35224;BME280;21367;51.930;8.112;2023-03-31T20:11:42;98802.94;;;10.52;100.00
35224;BME280;21367;51.930;8.112;2023-03-31T20:16:48;98787.44;;;10.42;100.00
35224;BME280;21367;51.930;8.112;2023-03-31T20:21:52;98800.28;;;10.42;100.00
35224;BME280;21367;51.930;8.112;2023-03-31T20:26:57;98790.53;;;10.17;100.00
35224;BME280;21367;51.930;8.112;2023-03-31T20:32:03;98791.53;;;10.27;100.00
35224;BME280;21367;51.930;8.112;2023-03-31T20:37:08;98792.16;;;10.12;100.00
35224;BME280;21367;51.930;8.112;2023-03-31T20:42:12;98789.56;;;10.09;100.00
35224;BME280;21367;51.930;8.112;2023-03-31T20:47:19;98795.56;;;10.11;100.00
35224;BME280;21367;51.930;8.112;2023-03-31T20:52:23;98790.53;;;10.17;100.00
35224;BME280;21367;51.930;8.112;2023-03-31T20:57:26;98794.59;;;10.03;100.00
35224;BME280;21367;51.930;8.112;2023-03-31T21:02:33;98797.16;;;10.01;100.00
35224;BME280;21367;51.930;8.112;2023-03-31T21:07:37;98803.97;;;9.99;100.00
35224;BME280;21367;51.930;8.112;2023-03-31T21:12:41;98794.59;;;10.01;100.00
35224;BME280;21367;51.930;8.112;2023-03-31T21:17:48;98792.03;;;10.01;100.00
35224;BME280;21367;51.930;8.112;2023-03-31T21:22:52;98795.56;;;10.11;100.00
35224;BME280;21367;51.930;8.112;2023-03-31T21:27:57;98795.38;;;9.94;100.00
35224;BME280;21367;51.930;8.112;2023-03-31T21:33:03;98796.94;;;9.84;100.00
35224;BME280;21367;51.930;8.112;2023-03-31T21:38:06;98803.16;;;10.00;100.00
35224;BME280;21367;51.930;8.112;2023-03-31T21:43:10;98792.72;;;9.88;100.00
35224;BME280;21367;51.930;8.112;2023-03-31T21:48:16;98794.97;;;9.66;100.00
35224;BME280;21367;51.930;8.112;2023-03-31T21:53:21;98795.06;;;9.72;100.00
35224;BME280;21367;51.930;8.112;2023-03-31T21:58:27;98800.16;;;9.71;100.00
35224;BME280;21367;51.930;8.112;2023-03-31T22:03:34;98800.16;;;9.71;100.00
35224;BME280;21367;51.930;8.112;2023-03-31T22:08:38;98805.00;;;9.51;100.00
35224;BME280;21367;51.930;8.112;2023-03-31T22:13:42;98810.03;;;9.45;100.00
35224;BME280;21367;51.930;8.112;2023-03-31T22:18:49;98808.50;;;9.58;100.00
35224;BME280;21367;51.930;8.112;2023-03-31T22:23:56;98807.50;;;9.46;100.00
35224;BME280;21367;51.930;8.112;2023-03-31T22:29:00;98813.41;;;9.42;100.00
35224;BME280;21367;51.930;8.112;2023-03-31T22:34:06;98812.03;;;9.63;100.00
35224;BME280;21367;51.930;8.112;2023-03-31T22:39:09;98811.94;;;9.58;100.00
35224;BME280;21367;51.930;8.112;2023-03-31T22:44:14;98815.25;;;9.49;100.00
35224;BME280;21367;51.930;8.112;2023-03-31T22:49:20;98814.63;;;9.66;100.00
35224;BME280;21367;51.930;8.112;2023-03-31T22:54:24;98827.31;;;9.57;100.00
35224;BME280;21367;51.930;8.112;2023-03-31T22:59:27;98818.63;;;9.48;100.00
35224;BME280;21367;51.930;8.112;2023-03-31T23:04:34;98817.63;;;9.39;100.00
35224;BME280;21367;51.930;8.112;2023-03-31T23:09:37;98817.81;;;9.49;100.00
35224;BME280;21367;51.930;8.112;2023-03-31T23:14:41;98816.81;;;9.43;100.00
35224;BME280;21367;51.930;8.112;2023-03-31T23:19:48;98811.06;;;9.56;100.00
35224;BME280;21367;51.930;8.112;2023-03-31T23:24:52;98816.16;;;9.55;100.00
35224;BME280;21367;51.930;8.112;2023-03-31T23:29:56;98809.41;;;9.61;100.00
35224;BME280;21367;51.930;8.112;2023-03-31T23:35:03;98811.03;;;9.55;100.00
35224;BME280;21367;51.930;8.112;2023-03-31T23:40:08;98807.66;;;9.57;100.00
35224;BME280;21367;51.930;8.112;2023-03-31T23:45:13;98807.56;;;9.51;100.00
35224;BME280;21367;51.930;8.112;2023-03-31T23:50:19;98798.25;;;9.58;100.00
35224;BME280;21367;51.930;8.112;2023-03-31T23:55:23;98800.94;;;9.65;100.00
